Time,TemperatureF,DewpointF,PressureIn,WindDirection,WindDirectionDegrees,WindSpeedMPH,WindSpeedGustMPH,Humidity,HourlyPrecipIn,Conditions,Clouds,dailyrainin,SolarRadiationWatts/m^2,SoftwareType,DateUTC
2013-03-25 00:00:00,38.2,28.2,29.95,NNE,30,4.0,20.0,67,0.00,,---,0.00,0.00,VWS V14.00,2013-03-25 05:00:00,
2013-03-25 00:30:00,37.6,27.6,29.96,NNW,333,4.0,18.0,67,0.00,,---,0.00,0.00,VWS V14.00,2013-03-25 05:30:00,
2013-03-25 01:00:00,36.9,28.0,29.97,NW,325,4.0,18.0,70,0.00,,---,0.00,0.00,VWS V14.00,2013-03-25 06:00:00,
2013-03-25 01:30:00,36.8,28.0,29.97,ENE,60,10.0,15.0,70,0.00,,---,0.00,0.00,VWS V14.00,2013-03-25 06:30:00,
2013-03-25 02:00:00,36.7,28.2,29.97,WSW,257,0.0,14.0,71,0.00,,---,0.00,0.00,VWS V14.00,2013-03-25 07:00:00,
2013-03-25 02:30:00,36.1,26.6,29.97,NNW,348,12.0,19.0,68,0.00,,---,0.00,0.00,VWS V14.00,2013-03-25 07:30:00,
2013-03-25 03:00:00,35.6,25.7,29.97,NE,39,0.0,19.0,67,0.00,,---,0.00,0.00,VWS V14.00,2013-03-25 08:00:00,
2013-03-25 03:30:00,35.6,24.6,29.97,SSE,159,1.0,16.0,64,0.00,,---,0.00,0.00,VWS V14.00,2013-03-25 08:30:00,
2013-03-25 04:00:00,35.6,25.4,29.97,NW,323,0.0,17.0,66,0.00,,---,0.00,0.00,VWS V14.00,2013-03-25 09:00:00,
2013-03-25 04:30:00,35.6,26.8,29.97,West,281,0.0,8.0,70,0.00,,---,0.00,0.00,VWS V14.00,2013-03-25 09:30:00,
2013-03-25 05:00:00,35.3,25.5,29.98,West,279,1.0,17.0,67,0.00,,---,0.00,0.00,VWS V14.00,2013-03-25 10:00:00,
2013-03-25 05:30:00,35.2,26.1,29.99,West,281,0.0,11.0,69,0.00,,---,0.00,0.00,VWS V14.00,2013-03-25 10:30:00,
2013-03-25 06:00:00,34.5,24.3,30.00,WSW,250,0.0,23.0,66,0.00,,---,0.00,0.00,VWS V14.00,2013-03-25 11:00:00,
2013-03-25 06:30:00,34.3,24.5,30.01,NW,310,11.0,20.0,67,0.00,,---,0.00,0.00,VWS V14.00,2013-03-25 11:30:00,
2013-03-25 07:00:00,33.9,24.1,30.02,West,281,2.0,15.0,67,0.00,,---,0.00,5.00,VWS V14.00,2013-03-25 12:00:00,
2013-03-25 07:30:00,33.9,25.2,30.03,WSW,255,1.0,14.0,70,0.00,,---,0.00,35.00,VWS V14.00,2013-03-25 12:30:00,
2013-03-25 08:00:00,33.9,25.2,30.05,NNW,327,4.0,13.0,70,0.00,,---,0.00,95.00,VWS V14.00,2013-03-25 13:00:00,
2013-03-25 08:30:00,33.9,26.2,30.06,West,259,13.0,17.0,73,0.00,,---,0.00,121.00,VWS V14.00,2013-03-25 13:30:00,
2013-03-25 09:00:00,34.9,26.5,30.06,WSW,244,1.0,18.0,71,0.00,,---,0.00,367.00,VWS V14.00,2013-03-25 14:00:00,
2013-03-25 09:30:00,36.0,25.8,30.07,West,265,9.0,19.0,66,0.00,,---,0.00,492.00,VWS V14.00,2013-03-25 14:30:00,
2013-03-25 10:00:00,36.9,25.9,30.07,West,274,3.0,18.0,64,0.00,,---,0.00,615.00,VWS V14.00,2013-03-25 15:00:00,
2013-03-25 10:30:00,37.5,25.7,30.08,NW,324,1.0,21.0,62,0.00,,---,0.00,615.00,VWS V14.00,2013-03-25 15:30:00,
2013-03-25 11:00:00,39.8,26.7,30.09,NW,318,6.0,17.0,59,0.00,,---,0.00,162.00,VWS V14.00,2013-03-25 16:00:00,
2013-03-25 11:30:00,40.1,27.3,30.10,West,260,13.0,18.0,60,0.00,,---,0.00,181.00,VWS V14.00,2013-03-25 16:30:00,
2013-03-25 12:00:00,40.1,27.8,30.10,WNW,302,0.0,18.0,61,0.00,,---,0.00,288.00,VWS V14.00,2013-03-25 17:00:00,
2013-03-25 12:30:00,40.5,25.6,30.11,NNW,344,7.0,16.0,55,0.00,,---,0.00,253.00,VWS V14.00,2013-03-25 17:30:00,
2013-03-25 13:00:00,40.3,26.3,30.11,NNW,333,2.0,18.0,57,0.00,,---,0.00,260.00,VWS V14.00,2013-03-25 18:00:00,
2013-03-25 13:30:00,40.8,26.8,30.11,North,360,1.0,22.0,57,0.00,,---,0.00,438.00,VWS V14.00,2013-03-25 18:30:00,
2013-03-25 14:00:00,42.8,26.9,30.11,NW,309,11.0,21.0,53,0.00,,---,0.00,315.00,VWS V14.00,2013-03-25 19:00:00,
2013-03-25 14:30:00,41.8,26.8,30.11,ENE,61,0.0,19.0,55,0.00,,---,0.00,271.00,VWS V14.00,2013-03-25 19:30:00,
2013-03-25 15:00:00,42.0,27.0,30.11,WNW,295,2.0,16.0,55,0.00,,---,0.00,714.00,VWS V14.00,2013-03-25 20:00:00,
2013-03-25 15:30:00,41.9,26.9,30.12,WSW,240,4.0,22.0,55,0.00,,---,0.00,332.00,VWS V14.00,2013-03-25 20:30:00,
2013-03-25 16:00:00,41.7,27.2,30.12,WSW,247,7.0,17.0,56,0.00,,---,0.00,283.00,VWS V14.00,2013-03-25 21:00:00,
2013-03-25 16:30:00,41.9,26.9,30.12,SSW,205,1.0,21.0,55,0.00,,---,0.00,214.00,VWS V14.00,2013-03-25 21:30:00,
2013-03-25 17:00:00,41.7,26.7,30.13,SW,221,7.0,20.0,55,0.00,,---,0.00,202.00,VWS V14.00,2013-03-25 22:00:00,
2013-03-25 17:30:00,40.9,26.9,30.14,NNE,30,0.0,18.0,57,0.00,,---,0.00,98.00,VWS V14.00,2013-03-25 22:30:00,
2013-03-25 18:00:00,40.1,26.1,30.15,NNW,327,4.0,13.0,57,0.00,,---,0.00,47.00,VWS V14.00,2013-03-25 23:00:00,
2013-03-25 18:30:00,39.7,26.1,30.16,NNE,19,0.0,13.0,58,0.00,,---,0.00,32.00,VWS V14.00,2013-03-25 23:30:00,
2013-03-25 19:00:00,39.2,26.5,30.18,NW,311,2.0,12.0,60,0.00,,---,0.00,5.00,VWS V14.00,2013-03-26 00:00:00,
2013-03-25 19:30:00,38.7,26.0,30.18,WNW,299,0.0,12.0,60,0.00,,---,0.00,0.00,VWS V14.00,2013-03-26 00:30:00,
2013-03-25 20:00:00,38.6,26.3,30.19,NNW,344,0.0,13.0,61,0.00,,---,0.00,0.00,VWS V14.00,2013-03-26 01:00:00,
2013-03-25 20:30:00,38.4,26.1,30.20,North,350,0.0,11.0,61,0.00,,---,0.00,0.00,VWS V14.00,2013-03-26 01:30:00,
2013-03-25 21:00:00,38.3,26.4,30.21,West,270,1.0,17.0,62,0.00,,---,0.00,0.00,VWS V14.00,2013-03-26 02:00:00,
2013-03-25 21:16:00,38.3,26.4,30.21,West,270,1.0,17.0,62,0.00,,---,0.00,0.00,VWS V14.00,2013-03-26 02:16:00,
2013-03-25 21:17:00,38.0,26.1,30.21,NNW,329,3.0,12.0,62,0.00,,---,0.00,0.00,VWS V14.00,2013-03-26 02:17:00,
2013-03-25 21:22:00,38.0,25.8,30.22,ENE,65,1.0,12.0,61,0.00,,---,0.00,0.00,VWS V14.00,2013-03-26 02:22:00,
2013-03-25 21:27:00,38.0,26.1,30.22,West,274,0.0,0.0,62,0.00,,---,0.00,0.00,VWS V14.00,2013-03-26 02:27:00,
2013-03-25 21:30:00,38.0,26.1,30.22,West,274,0.0,12.0,62,0.00,,---,0.00,0.00,VWS V14.00,2013-03-26 02:30:00,
2013-03-25 21:32:00,37.9,26.1,30.22,North,355,0.0,12.0,62,0.00,,---,0.00,0.00,VWS V14.00,2013-03-26 02:32:00,
2013-03-25 21:37:00,37.9,26.1,30.23,NNW,334,2.0,12.0,62,0.00,,---,0.00,0.00,VWS V14.00,2013-03-26 02:37:00,
2013-03-25 21:42:00,37.9,26.1,30.23,WNW,296,0.0,12.0,62,0.00,,---,0.00,0.00,VWS V14.00,2013-03-26 02:42:00,
2013-03-25 21:47:00,37.8,26.4,30.23,North,350,0.0,12.0,63,0.00,,---,0.00,0.00,VWS V14.00,2013-03-26 02:47:00,
2013-03-25 21:52:00,37.8,26.4,30.23,WSW,257,0.0,12.0,63,0.00,,---,0.00,0.00,VWS V14.00,2013-03-26 02:52:00,
2013-03-25 21:57:00,37.8,26.4,30.23,NW,325,0.0,0.0,63,0.00,,---,0.00,0.00,VWS V14.00,2013-03-26 02:57:00,
2013-03-25 22:00:00,37.8,26.4,30.23,NW,325,0.0,12.0,63,0.00,,---,0.00,0.00,VWS V14.00,2013-03-26 03:00:00,
2013-03-25 22:02:00,37.8,26.7,30.23,NW,325,0.0,4.0,64,0.00,,---,0.00,0.00,VWS V14.00,2013-03-26 03:02:00,
2013-03-25 22:07:00,37.7,26.3,30.23,NNW,334,0.0,10.0,63,0.00,,---,0.00,0.00,VWS V14.00,2013-03-26 03:07:00,
2013-03-25 22:12:00,37.7,26.6,30.23,WNW,292,0.0,10.0,64,0.00,,---,0.00,0.00,VWS V14.00,2013-03-26 03:12:00,
2013-03-25 22:17:00,37.7,26.6,30.23,West,267,0.0,10.0,64,0.00,,---,0.00,0.00,VWS V14.00,2013-03-26 03:17:00,
2013-03-25 22:22:00,37.7,26.6,30.23,NNW,336,0.0,10.0,64,0.00,,---,0.00,0.00,VWS V14.00,2013-03-26 03:22:00,
2013-03-25 22:27:00,37.7,27.0,30.23,NNW,329,0.0,2.0,65,0.00,,---,0.00,0.00,VWS V14.00,2013-03-26 03:27:00,
2013-03-25 22:30:00,37.7,27.0,30.23,NNW,348,0.0,10.0,65,0.00,,---,0.00,0.00,VWS V14.00,2013-03-26 03:30:00,
2013-03-25 22:32:00,37.6,26.9,30.24,ENE,59,0.0,5.0,65,0.00,,---,0.00,0.00,VWS V14.00,2013-03-26 03:32:00,
2013-03-25 22:37:00,37.6,26.9,30.24,NE,39,0.0,5.0,65,0.00,,---,0.00,0.00,VWS V14.00,2013-03-26 03:37:00,
2013-03-25 22:42:00,37.6,26.9,30.24,West,267,0.0,5.0,65,0.00,,---,0.00,0.00,VWS V14.00,2013-03-26 03:42:00,
2013-03-25 22:47:00,37.6,26.9,30.24,NW,312,0.0,5.0,65,0.00,,---,0.00,0.00,VWS V14.00,2013-03-26 03:47:00,
2013-03-25 22:52:00,37.5,26.8,30.24,NNW,327,0.0,5.0,65,0.00,,---,0.00,0.00,VWS V14.00,2013-03-26 03:52:00,
2013-03-25 22:57:00,37.5,27.2,30.24,NW,311,0.0,0.0,66,0.00,,---,0.00,0.00,VWS V14.00,2013-03-26 03:57:00,
2013-03-25 23:00:00,37.5,27.2,30.25,West,271,0.0,0.0,66,0.00,,---,0.00,0.00,VWS V14.00,2013-03-26 04:00:00,
2013-03-25 23:05:00,37.5,27.2,30.24,SW,234,3.0,3.0,66,0.00,,---,0.00,0.00,VWS V14.00,2013-03-26 04:05:00,
2013-03-25 23:10:00,37.6,27.3,30.24,NNW,334,4.0,12.0,66,0.00,,---,0.00,0.00,VWS V14.00,2013-03-26 04:10:00,
2013-03-25 23:15:00,37.6,27.3,30.24,WSW,238,0.0,12.0,66,0.00,,---,0.00,0.00,VWS V14.00,2013-03-26 04:15:00,
2013-03-25 23:20:00,37.7,27.0,30.24,West,278,0.0,12.0,65,0.00,,---,0.00,0.00,VWS V14.00,2013-03-26 04:20:00,
2013-03-25 23:25:00,37.7,27.4,30.24,West,267,1.0,12.0,66,0.00,,---,0.00,0.00,VWS V14.00,2013-03-26 04:25:00,
2013-03-25 23:30:00,37.8,27.5,30.24,North,9,0.0,2.0,66,0.00,,---,0.00,0.00,VWS V14.00,2013-03-26 04:30:00,
2013-03-25 23:35:00,37.8,27.5,30.24,WNW,302,0.0,6.0,66,0.00,,---,0.00,0.00,VWS V14.00,2013-03-26 04:35:00,
2013-03-25 23:40:00,37.8,27.5,30.25,NW,310,0.0,6.0,66,0.00,,---,0.00,0.00,VWS V14.00,2013-03-26 04:40:00,
2013-03-25 23:45:00,37.8,27.5,30.24,North,355,0.0,6.0,66,0.00,,---,0.00,0.00,VWS V14.00,2013-03-26 04:45:00,
2013-03-25 23:50:00,37.9,27.6,30.25,WNW,288,0.0,6.0,66,0.00,,---,0.00,0.00,VWS V14.00,2013-03-26 04:50:00,
2013-03-25 23:55:00,37.9,27.6,30.25,NNW,336,7.0,11.0,66,0.00,,---,0.00,0.00,VWS V14.00,2013-03-26 04:55:00,